Time;durP1;ratioP1;P1;durP2;ratioP2;P2;SDS_P1;SDS_P2;PMS_P1;PMS_P2;Temp;Humidity;BMP_temperature;BMP_pressure;BME280_temperature;BME280_humidity;BME280_pressure;Samples;Min_cycle;Max_cycle;Signal;HPM_P1;HPM_P2
2023/10/04 00:01:39;;;;;;;5.28;2.20;;;20.10;63.90;;;;;;5092819;28;20060;-65
2023/10/04 00:04:06;;;;;;;5.35;2.08;;;20.10;63.50;;;;;;5089621;28;20058;-65
2023/10/04 00:06:31;;;;;;;4.63;2.13;;;20.10;63.90;;;;;;5072560;28;20087;-66
2023/10/04 00:08:58;;;;;;;4.95;2.47;;;20.10;63.70;;;;;;5072977;28;20459;-65
2023/10/04 00:11:24;;;;;;;3.90;2.00;;;20.10;63.30;;;;;;5072957;28;20028;-65
2023/10/04 00:13:51;;;;;;;5.47;2.17;;;20.10;63.30;;;;;;5072536;28;20193;-64
2023/10/04 00:16:17;;;;;;;4.75;2.05;;;20.10;63.00;;;;;;5072894;28;20028;-65
2023/10/04 00:18:43;;;;;;;3.40;1.75;;;20.10;62.20;;;;;;5072506;28;20024;-65
2023/10/04 00:21:13;;;;;;;3.33;1.83;;;20.00;61.80;;;;;;5072839;28;20449;-64
2023/10/04 00:23:39;;;;;;;7.13;2.42;;;20.10;61.10;;;;;;5072322;28;20074;-65
2023/10/04 00:26:08;;;;;;;3.20;1.60;;;20.10;60.80;;;;;;5072698;28;20036;-66
2023/10/04 00:28:34;;;;;;;3.88;1.80;;;20.00;60.90;;;;;;5072328;28;20028;-66
2023/10/04 00:31:00;;;;;;;4.60;1.83;;;20.00;60.90;;;;;;5071388;28;20366;-66
2023/10/04 00:33:26;;;;;;;4.70;2.10;;;20.00;60.50;;;;;;5072802;28;20027;-65
2023/10/04 00:35:52;;;;;;;3.78;2.05;;;20.00;60.50;;;;;;5072192;28;20041;-66
2023/10/04 00:38:19;;;;;;;4.28;1.70;;;19.90;60.50;;;;;;5077341;28;20448;-65
2023/10/04 00:40:47;;;;;;;3.20;1.67;;;19.90;60.10;;;;;;5092284;28;20073;-66
2023/10/04 00:43:14;;;;;;;3.65;1.30;;;19.90;60.30;;;;;;5092683;28;20461;-65
2023/10/04 00:45:44;;;;;;;5.80;1.77;;;19.80;59.80;;;;;;5092213;28;20505;-65
2023/10/04 00:48:15;;;;;;;3.53;1.70;;;19.80;59.90;;;;;;5092864;28;20031;-65
2023/10/04 00:50:41;;;;;;;;;;;19.80;59.80;;;;;;5092852;28;20051;-66
2023/10/04 00:53:08;;;;;;;2.90;1.58;;;19.80;60.00;;;;;;5092879;28;20409;-65
2023/10/04 00:55:40;;;;;;;2.50;1.50;;;19.70;60.10;;;;;;5092726;28;20074;-66
2023/10/04 00:58:07;;;;;;;4.35;1.85;;;19.70;60.20;;;;;;5092543;28;20146;-65
2023/10/04 01:00:34;;;;;;;4.40;1.80;;;19.70;60.10;;;;;;5092613;28;20035;-66
2023/10/04 01:03:00;;;;;;;3.85;1.88;;;19.70;60.20;;;;;;5092354;28;20028;-65
2023/10/04 01:05:30;;;;;;;6.55;2.30;;;19.70;59.80;;;;;;5092210;28;20085;-65
2023/10/04 01:07:57;;;;;;;2.95;1.40;;;19.60;60.00;;;;;;5093353;28;20032;-65
2023/10/04 01:10:34;;;;;;;2.72;1.58;;;19.60;60.00;;;;;;5096681;28;20024;-64
2023/10/04 01:13:05;;;;;;;2.50;1.40;;;19.60;60.10;;;;;;5096183;28;20415;-65
2023/10/04 01:15:36;;;;;;;;;;;19.50;59.90;;;;;;5096973;28;20081;-64
2023/10/04 01:18:10;;;;;;;3.97;1.63;;;19.50;60.30;;;;;;5096646;28;20317;-65
2023/10/04 01:20:38;;;;;;;6.30;1.77;;;19.50;59.80;;;;;;5096117;28;20485;-65
2023/10/04 01:23:10;;;;;;;5.70;2.00;;;19.40;59.40;;;;;;5096274;28;20024;-64
2023/10/04 01:25:41;;;;;;;4.05;1.70;;;19.40;59.30;;;;;;5096280;28;20124;-64
2023/10/04 01:28:17;;;;;;;4.38;1.65;;;19.40;59.40;;;;;;5096301;28;20054;-65
2023/10/04 01:30:45;;;;;;;3.00;1.73;;;19.30;59.20;;;;;;5096177;28;20110;-65
2023/10/04 01:33:18;;;;;;;2.40;1.40;;;19.30;59.00;;;;;;5096161;28;20032;-64
2023/10/04 01:35:53;;;;;;;2.70;1.40;;;19.30;59.00;;;;;;5095869;28;20028;-65
2023/10/04 01:38:26;;;;;;;3.72;1.80;;;19.30;59.40;;;;;;5096157;28;20035;-64
2023/10/04 01:40:52;;;;;;;3.47;1.70;;;19.20;59.50;;;;;;5096152;28;20119;-65
2023/10/04 01:43:19;;;;;;;10.18;1.73;;;19.20;59.80;;;;;;5097373;28;20051;-65
2023/10/04 01:45:53;;;;;;;3.75;1.50;;;19.10;59.70;;;;;;5095407;28;20115;-65
2023/10/04 01:48:22;;;;;;;4.55;1.65;;;19.10;60.00;;;;;;5093334;28;20106;-65
2023/10/04 01:50:48;;;;;;;2.95;1.70;;;19.00;60.30;;;;;;5095030;28;20078;-65
2023/10/04 01:53:15;;;;;;;3.08;1.60;;;19.00;60.20;;;;;;5095766;28;20097;-64
2023/10/04 01:55:41;;;;;;;4.45;1.60;;;19.00;60.10;;;;;;5095133;28;20032;-65
2023/10/04 01:58:08;;;;;;;4.47;1.60;;;18.90;60.30;;;;;;5095849;28;20051;-65
2023/10/04 02:00:35;;;;;;;4.43;1.48;;;18.90;60.20;;;;;;5095657;28;20024;-65
2023/10/04 02:03:01;;;;;;;2.83;1.40;;;18.90;60.40;;;;;;5095139;28;20028;-65
2023/10/04 02:05:37;;;;;;;3.15;1.63;;;18.90;60.70;;;;;;5077458;28;20142;-65
2023/10/04 02:08:12;;;;;;;3.72;1.58;;;18.80;60.70;;;;;;5074894;28;20029;-64
2023/10/04 02:10:41;;;;;;;5.15;1.42;;;18.80;61.00;;;;;;5075281;28;20051;-64
2023/10/04 02:13:08;;;;;;;5.90;1.67;;;18.70;61.20;;;;;;5075147;28;20024;-64
2023/10/04 02:15:38;;;;;;;3.00;1.40;;;18.70;61.50;;;;;;5075219;28;20036;-64
2023/10/04 02:18:04;;;;;;;2.53;1.40;;;18.60;61.70;;;;;;5074312;28;20477;-64
2023/10/04 02:20:34;;;;;;;9.90;1.83;;;18.60;61.90;;;;;;5074789;28;20036;-64
2023/10/04 02:23:00;;;;;;;2.78;1.30;;;18.60;62.30;;;;;;5073488;28;20396;-64
2023/10/04 02:25:25;;;;;;;2.63;1.52;;;18.50;62.30;;;;;;5074670;28;20029;-64
2023/10/04 02:27:52;;;;;;;3.30;1.70;;;18.50;62.50;;;;;;5074457;28;20056;-65
2023/10/04 02:30:26;;;;;;;3.50;1.60;;;18.40;62.70;;;;;;5074612;28;20025;-65
2023/10/04 02:32:53;;;;;;;2.45;1.70;;;18.40;63.10;;;;;;5074344;28;20465;-65
2023/10/04 02:35:34;;;;;;;2.80;1.60;;;18.40;63.20;;;;;;5074790;28;20032;-65
2023/10/04 02:38:00;;;;;;;4.43;1.63;;;18.40;63.40;;;;;;5094093;28;20024;-65
2023/10/04 02:40:27;;;;;;;2.55;1.48;;;18.30;63.40;;;;;;5093627;28;20039;-65
2023/10/04 02:42:54;;;;;;;3.55;1.50;;;18.30;63.70;;;;;;5094166;28;20031;-65
2023/10/04 02:45:21;;;;;;;4.32;1.48;;;18.30;64.10;;;;;;5094670;28;20032;-65
2023/10/04 02:47:49;;;;;;;2.92;1.42;;;18.20;64.20;;;;;;5094277;28;20028;-65
2023/10/04 02:50:17;;;;;;;2.55;1.50;;;18.20;64.20;;;;;;5094424;28;20472;-65
2023/10/04 02:52:44;;;;;;;2.67;1.30;;;18.20;64.40;;;;;;5094281;28;20346;-65
2023/10/04 02:55:15;;;;;;;2.80;1.60;;;18.20;64.50;;;;;;5094531;28;20028;-65
2023/10/04 02:57:41;;;;;;;;;;;18.10;64.80;;;;;;5093434;28;20055;-65
2023/10/04 03:00:11;;;;;;;2.83;1.65;;;18.10;65.10;;;;;;5094163;28;19904;-65
2023/10/04 03:02:38;;;;;;;3.58;1.80;;;18.00;65.70;;;;;;5093150;28;20024;-65
2023/10/04 03:05:06;;;;;;;3.15;1.73;;;18.00;68.10;;;;;;5093812;28;20058;-65
2023/10/04 03:07:32;;;;;;;2.88;1.50;;;17.90;72.30;;;;;;5094276;28;20043;-65
2023/10/04 03:09:58;;;;;;;2.28;1.60;;;17.90;72.90;;;;;;5093859;28;20119;-65
2023/10/04 03:12:24;;;;;;;4.13;2.08;;;17.80;74.50;;;;;;5094187;28;20027;-65
2023/10/04 03:14:50;;;;;;;2.53;1.55;;;17.80;74.90;;;;;;5093847;28;20516;-65
2023/10/04 03:17:16;;;;;;;5.68;2.00;;;17.70;75.20;;;;;;5094084;28;20039;-65
2023/10/04 03:19:43;;;;;;;6.22;1.40;;;17.70;74.60;;;;;;5094131;28;20028;-65
2023/10/04 03:22:10;;;;;;;3.53;1.65;;;17.70;74.70;;;;;;5093749;28;20027;-65
2023/10/04 03:24:36;;;;;;;4.03;1.70;;;17.70;74.60;;;;;;5093961;28;20085;-65
2023/10/04 03:27:05;;;;;;;2.55;1.60;;;17.60;75.50;;;;;;5093472;28;20043;-65
2023/10/04 03:29:31;;;;;;;4.50;1.38;;;17.60;75.70;;;;;;5093869;28;20122;-65
2023/10/04 03:31:56;;;;;;;3.45;1.73;;;17.60;76.60;;;;;;5092712;28;20028;-65
2023/10/04 03:34:25;;;;;;;3.85;1.60;;;17.50;77.70;;;;;;5093845;28;20422;-65
2023/10/04 03:36:51;;;;;;;2.83;1.50;;;17.40;77.80;;;;;;5093343;28;20066;-64
2023/10/04 03:39:16;;;;;;;4.20;1.40;;;17.40;78.50;;;;;;5092125;28;20024;-64
2023/10/04 03:41:42;;;;;;;3.50;1.67;;;17.40;78.60;;;;;;5090144;28;20031;-65
2023/10/04 03:44:09;;;;;;;2.50;1.38;;;17.40;79.10;;;;;;5093185;28;20024;-65
2023/10/04 03:46:34;;;;;;;3.58;1.60;;;17.40;79.10;;;;;;5093445;28;20040;-65
2023/10/04 03:49:02;;;;;;;4.53;1.40;;;17.30;79.60;;;;;;5093126;28;20028;-65
2023/10/04 03:51:28;;;;;;;3.70;2.10;;;17.30;80.70;;;;;;5093613;28;20030;-65
2023/10/04 03:53:54;;;;;;;2.60;1.67;;;17.20;81.00;;;;;;5093181;28;20031;-65
2023/10/04 03:56:22;;;;;;;3.80;1.48;;;17.20;81.60;;;;;;5093226;28;20036;-65
2023/10/04 03:58:48;;;;;;;2.40;1.50;;;17.20;81.60;;;;;;5089689;28;20036;-65
2023/10/04 04:01:14;;;;;;;3.65;1.40;;;17.20;82.00;;;;;;5091703;28;20032;-65
2023/10/04 04:03:40;;;;;;;3.90;2.03;;;17.10;82.20;;;;;;5093369;28;20330;-65
2023/10/04 04:06:06;;;;;;;5.68;1.73;;;17.10;82.20;;;;;;5092969;28;20433;-65
2023/10/04 04:08:33;;;;;;;4.55;1.60;;;17.10;82.20;;;;;;5093178;28;20465;-65
2023/10/04 04:10:58;;;;;;;4.55;1.50;;;17.10;82.20;;;;;;5092874;28;20115;-65
2023/10/04 04:13:24;;;;;;;3.55;1.77;;;17.00;82.00;;;;;;5093204;28;20516;-65
2023/10/04 04:15:51;;;;;;;3.33;1.90;;;17.00;81.90;;;;;;5092789;28;20085;-65
2023/10/04 04:18:20;;;;;;;2.90;1.77;;;17.00;82.00;;;;;;5092837;28;20016;-65
2023/10/04 04:20:50;;;;;;;3.03;1.75;;;17.00;81.70;;;;;;5093102;28;20020;-64
2023/10/04 04:23:16;;;;;;;3.78;1.75;;;17.00;81.50;;;;;;5092649;28;20662;-65
2023/10/04 04:25:43;;;;;;;3.70;1.63;;;17.00;81.40;;;;;;5092939;28;20028;-67
2023/10/04 04:28:13;;;;;;;4.65;2.05;;;16.90;81.00;;;;;;5092363;28;20024;-65
2023/10/04 04:30:39;;;;;;;5.80;2.13;;;16.90;80.10;;;;;;5092915;28;20115;-65
2023/10/04 04:33:07;;;;;;;3.65;1.60;;;16.90;79.80;;;;;;5092508;28;20481;-66
2023/10/04 04:38:19;;;;;;;3.15;2.03;;;16.90;79.40;;;;;;5078559;28;20373;-66
2023/10/04 04:40:48;;;;;;;4.63;1.63;;;16.80;79.10;;;;;;5072790;28;20468;-65
2023/10/04 04:45:51;;;;;;;3.40;2.05;;;16.90;78.20;;;;;;5072829;28;20131;-66
2023/10/04 04:48:24;;;;;;;3.88;1.70;;;16.80;77.10;;;;;;5072379;28;20021;-65
2023/10/04 04:50:54;;;;;;;2.88;1.50;;;16.80;76.90;;;;;;5072443;28;20109;-66
2023/10/04 04:53:22;;;;;;;3.75;1.63;;;16.70;77.90;;;;;;5072615;28;20109;-65
2023/10/04 04:55:49;;;;;;;2.95;1.70;;;16.70;76.80;;;;;;5072339;28;20040;-66
2023/10/04 04:58:15;;;;;;;3.22;1.85;;;16.70;76.70;;;;;;5071955;28;20084;-65
2023/10/04 05:00:44;;;;;;;2.28;1.55;;;16.70;76.50;;;;;;5076367;28;20133;-65
2023/10/04 05:03:11;;;;;;;4.25;1.90;;;16.60;77.00;;;;;;5074338;28;20102;-65
2023/10/04 05:05:38;;;;;;;3.50;1.60;;;16.60;77.00;;;;;;5090940;28;20333;-65
2023/10/04 05:08:04;;;;;;;5.75;1.70;;;16.60;77.00;;;;;;5092185;28;20028;-66
2023/10/04 05:10:36;;;;;;;5.22;1.90;;;16.50;77.10;;;;;;5092655;28;20349;-65
2023/10/04 05:13:03;;;;;;;3.58;1.85;;;16.60;77.10;;;;;;5078970;28;20112;-66
2023/10/04 05:15:32;;;;;;;3.72;1.77;;;16.60;76.90;;;;;;5090475;28;20086;-65
2023/10/04 05:18:15;;;;;;;4.78;1.85;;;16.50;77.10;;;;;;5092224;28;20020;-66
2023/10/04 05:20:45;;;;;;;4.72;1.58;;;16.50;77.00;;;;;;5090569;28;20487;-65
2023/10/04 05:23:11;;;;;;;3.45;2.00;;;16.50;76.70;;;;;;5074936;28;20021;-66
2023/10/04 05:25:37;;;;;;;4.10;1.70;;;16.50;77.10;;;;;;5083856;28;20043;-66
2023/10/04 05:28:14;;;;;;;4.32;1.73;;;16.40;77.30;;;;;;5077906;28;20025;-66
2023/10/04 05:30:41;;;;;;;2.67;1.75;;;16.40;77.40;;;;;;5072012;28;20461;-66
2023/10/04 05:33:07;;;;;;;4.18;1.65;;;16.40;77.60;;;;;;5070388;28;20370;-66
2023/10/04 05:35:35;;;;;;;4.03;2.25;;;16.40;77.70;;;;;;5071788;28;20037;-66
2023/10/04 05:38:08;;;;;;;5.07;2.10;;;16.40;77.70;;;;;;5071732;28;20020;-66
2023/10/04 05:40:43;;;;;;;4.18;1.83;;;16.40;77.60;;;;;;5073092;28;20063;-65
2023/10/04 05:43:09;;;;;;;3.65;1.50;;;16.40;78.00;;;;;;5071532;28;20074;-66
2023/10/04 05:45:36;;;;;;;4.25;1.88;;;16.30;78.00;;;;;;5073861;28;20413;-66
2023/10/04 05:48:05;;;;;;;3.03;1.80;;;16.30;78.10;;;;;;5071293;28;20025;-66
2023/10/04 05:50:32;;;;;;;4.10;1.52;;;16.40;78.00;;;;;;5070622;28;20095;-65
2023/10/04 05:53:00;;;;;;;5.72;2.30;;;16.40;77.70;;;;;;5071741;28;20024;-65
2023/10/04 05:55:26;;;;;;;3.17;2.13;;;16.30;77.80;;;;;;5075027;28;20515;-65
2023/10/04 05:57:52;;;;;;;3.63;1.73;;;16.40;77.60;;;;;;5075482;28;20088;-65
2023/10/04 06:00:37;;;;;;;8.98;1.80;;;16.40;77.80;;;;;;5074555;28;20021;-65
2023/10/04 06:03:11;;;;;;;3.38;1.70;;;16.30;77.80;;;;;;5074850;28;20028;-66
2023/10/04 06:05:41;;;;;;;5.03;1.75;;;16.40;78.00;;;;;;5077809;28;20072;-65
2023/10/04 06:08:26;;;;;;;3.30;1.63;;;16.40;78.20;;;;;;5074743;28;20059;-66
2023/10/04 06:10:55;;;;;;;4.07;1.75;;;16.40;77.80;;;;;;5075137;28;20025;-66
2023/10/04 06:13:25;;;;;;;5.20;1.90;;;16.40;77.80;;;;;;5074433;28;20024;-64
2023/10/04 06:15:55;;;;;;;4.05;1.67;;;16.40;78.20;;;;;;5075241;28;20035;-65
2023/10/04 06:18:22;;;;;;;4.07;2.13;;;16.40;78.60;;;;;;5074879;28;20089;-65
2023/10/04 06:20:49;;;;;;;7.32;2.00;;;16.40;77.60;;;;;;5073699;28;20025;-65
2023/10/04 06:23:15;;;;;;;4.00;1.83;;;16.50;77.80;;;;;;5074468;28;20477;-65
2023/10/04 06:25:44;;;;;;;3.58;2.00;;;16.50;77.80;;;;;;5074772;28;20036;-65
2023/10/04 06:28:10;;;;;;;3.45;1.98;;;16.60;77.40;;;;;;5074498;28;20033;-66
2023/10/04 06:30:37;;;;;;;5.07;3.10;;;16.60;77.00;;;;;;5074778;28;20034;-66
2023/10/04 06:33:05;;;;;;;4.28;2.20;;;16.60;77.30;;;;;;5074615;28;20033;-71
2023/10/04 06:35:32;;;;;;;4.80;2.45;;;16.70;76.40;;;;;;5074593;28;20039;-66
2023/10/04 06:37:59;;;;;;;3.15;1.90;;;16.70;76.00;;;;;;5074514;28;20063;-66
2023/10/04 06:40:26;;;;;;;5.10;2.28;;;16.70;75.80;;;;;;5074035;28;20039;-66
2023/10/04 06:42:53;;;;;;;4.28;2.20;;;16.70;75.80;;;;;;5075926;28;20027;-67
2023/10/04 06:45:20;;;;;;;4.80;2.05;;;16.60;75.80;;;;;;5073918;28;20041;-65
2023/10/04 06:47:50;;;;;;;4.75;1.95;;;16.70;75.40;;;;;;5074397;28;20035;-65
2023/10/04 06:50:18;;;;;;;6.68;2.10;;;16.70;75.00;;;;;;5074062;28;20032;-66
2023/10/04 06:52:48;;;;;;;3.65;1.98;;;16.80;74.30;;;;;;5074262;28;20020;-65
2023/10/04 06:55:15;;;;;;;4.38;2.10;;;16.80;74.30;;;;;;5073867;28;20120;-65
2023/10/04 06:57:41;;;;;;;4.35;2.28;;;16.90;73.90;;;;;;5073857;28;20497;-65
2023/10/04 07:00:14;;;;;;;3.40;1.77;;;17.00;73.30;;;;;;5073562;28;20029;-65
2023/10/04 07:02:43;;;;;;;3.40;2.03;;;16.90;73.20;;;;;;5074245;28;20024;-66
2023/10/04 07:05:09;;;;;;;3.65;1.67;;;16.90;72.70;;;;;;5072489;28;20031;-66
2023/10/04 07:07:36;;;;;;;2.38;1.70;;;17.00;73.10;;;;;;5074011;28;20020;-65
2023/10/04 07:10:01;;;;;;;5.88;2.22;;;17.10;73.10;;;;;;5074119;28;20028;-65
2023/10/04 07:12:28;;;;;;;4.90;2.50;;;17.20;72.80;;;;;;5073541;28;20385;-65
2023/10/04 07:14:53;;;;;;;6.68;2.05;;;17.30;72.90;;;;;;5074028;28;20021;-66
2023/10/04 07:17:19;;;;;;;5.20;1.83;;;17.50;72.20;;;;;;5073077;28;20090;-66
2023/10/04 07:19:45;;;;;;;5.05;1.90;;;17.60;71.80;;;;;;5073722;28;20535;-66
2023/10/04 07:22:10;;;;;;;3.70;2.22;;;17.60;71.40;;;;;;5073349;28;20027;-66
2023/10/04 07:24:37;;;;;;;3.28;1.92;;;17.60;71.80;;;;;;5072605;28;20040;-66
2023/10/04 07:27:03;;;;;;;3.75;1.90;;;17.70;72.10;;;;;;5073513;28;20044;-66
2023/10/04 07:29:29;;;;;;;4.60;2.33;;;17.90;72.10;;;;;;5073148;28;20025;-66
2023/10/04 07:31:56;;;;;;;3.13;1.95;;;18.30;69.90;;;;;;5073507;28;20481;-66
2023/10/04 07:34:27;;;;;;;2.42;1.75;;;18.50;69.60;;;;;;5073141;28;20025;-66
2023/10/04 07:36:53;;;;;;;4.93;2.58;;;18.70;68.40;;;;;;5073486;28;20032;-66
2023/10/04 07:39:21;;;;;;;8.88;1.88;;;18.90;68.40;;;;;;5075352;28;20073;-65
2023/10/04 07:41:47;;;;;;;3.42;1.90;;;19.10;66.10;;;;;;5073294;28;20039;-65
2023/10/04 07:44:13;;;;;;;3.47;1.80;;;19.20;65.90;;;;;;5071626;28;20032;-65
2023/10/04 07:46:39;;;;;;;3.42;1.70;;;19.00;65.40;;;;;;5072942;28;20144;-65
2023/10/04 07:49:05;;;;;;;4.05;1.98;;;18.80;66.50;;;;;;5073281;28;20381;-66
2023/10/04 07:51:31;;;;;;;4.30;2.00;;;18.70;66.90;;;;;;5072761;28;20024;-66
2023/10/04 07:53:57;;;;;;;6.38;2.10;;;18.90;66.70;;;;;;5073125;28;20035;-65
2023/10/04 07:56:23;;;;;;;3.72;2.00;;;18.80;66.10;;;;;;5072709;28;20469;-66
2023/10/04 07:58:48;;;;;;;3.60;2.00;;;18.70;66.90;;;;;;5072614;28;20045;-67
2023/10/04 08:01:14;;;;;;;3.33;1.95;;;18.60;67.00;;;;;;5072188;28;20097;-66
2023/10/04 08:03:40;;;;;;;5.85;1.85;;;18.60;66.90;;;;;;5072624;28;20074;-65
2023/10/04 08:06:12;;;;;;;6.75;1.98;;;18.60;67.00;;;;;;5072464;28;20093;-65
2023/10/04 08:08:41;;;;;;;2.97;1.60;;;18.70;66.70;;;;;;5086079;28;20400;-65
2023/10/04 08:11:10;;;;;;;3.97;2.17;;;18.90;65.80;;;;;;5092811;28;20468;-65
2023/10/04 08:13:36;;;;;;;4.95;2.03;;;19.20;64.90;;;;;;5093132;28;20372;-66
2023/10/04 08:16:03;;;;;;;5.80;1.83;;;19.40;62.30;;;;;;5093044;28;20032;-65
2023/10/04 08:18:29;;;;;;;6.68;1.80;;;19.30;61.20;;;;;;5092611;28;20035;-65
2023/10/04 08:20:55;;;;;;;3.40;1.90;;;19.30;61.20;;;;;;5093255;28;20388;-67
2023/10/04 08:23:21;;;;;;;5.47;1.83;;;19.40;61.50;;;;;;5092642;28;20414;-65
2023/10/04 08:25:49;;;;;;;4.60;1.88;;;19.60;61.50;;;;;;5092497;28;20046;-66
2023/10/04 08:28:15;;;;;;;6.18;1.90;;;19.70;61.50;;;;;;5092711;28;20039;-64
2023/10/04 08:30:41;;;;;;;3.80;1.67;;;19.90;59.70;;;;;;5093321;28;20024;-66
2023/10/04 08:33:08;;;;;;;4.07;1.80;;;19.90;59.00;;;;;;5093094;28;20054;-66
2023/10/04 08:35:36;;;;;;;3.00;1.67;;;20.00;59.20;;;;;;5092496;28;20469;-66
2023/10/04 08:38:04;;;;;;;3.60;1.70;;;20.10;60.40;;;;;;5093384;28;20032;-66
2023/10/04 08:40:30;;;;;;;6.38;1.80;;;20.30;58.80;;;;;;5092743;28;20074;-65
2023/10/04 08:42:58;;;;;;;3.33;1.75;;;20.50;58.60;;;;;;5093133;28;20069;-66
2023/10/04 08:45:29;;;;;;;3.25;1.92;;;20.30;58.00;;;;;;5093096;28;20063;-66
2023/10/04 08:47:57;;;;;;;3.75;1.90;;;20.10;58.90;;;;;;5083877;28;20031;-66
2023/10/04 08:50:50;;;;;;;5.20;1.88;;;20.20;59.40;;;;;;5072082;28;20029;-65
2023/10/04 08:53:25;;;;;;;5.07;1.83;;;20.20;58.70;;;;;;5071978;28;20102;-65
2023/10/04 08:55:56;;;;;;;5.22;2.10;;;20.10;60.40;;;;;;5072490;28;20058;-66
2023/10/04 08:58:22;;;;;;;;;;;20.20;60.30;;;;;;5071030;28;20098;-66
2023/10/04 09:00:50;;;;;;;3.70;1.92;;;20.00;59.40;;;;;;5072731;28;20310;-65
2023/10/04 09:03:20;;;;;;;6.40;1.92;;;20.00;60.10;;;;;;5072116;28;20036;-65
2023/10/04 09:05:47;;;;;;;4.45;1.88;;;19.80;59.50;;;;;;5072248;28;20037;-65
2023/10/04 09:08:16;;;;;;;3.40;1.80;;;19.70;60.90;;;;;;5072524;28;20028;-65
2023/10/04 09:10:42;;;;;;;2.90;1.70;;;19.80;61.10;;;;;;5072513;28;20469;-65
2023/10/04 09:13:09;;;;;;;5.00;1.90;;;19.90;60.60;;;;;;5072510;28;20508;-65
2023/10/04 09:15:35;;;;;;;5.05;2.28;;;19.70;61.20;;;;;;5071889;28;20124;-65
2023/10/04 09:18:03;;;;;;;6.68;1.83;;;19.70;62.20;;;;;;5072283;28;20059;-65
2023/10/04 09:20:32;;;;;;;3.65;1.38;;;19.60;62.30;;;;;;5071757;28;20384;-65
2023/10/04 09:22:59;;;;;;;5.00;2.03;;;19.70;62.40;;;;;;5072244;28;20021;-65
2023/10/04 09:25:35;;;;;;;4.88;1.95;;;19.70;61.90;;;;;;5071526;28;20032;-66
2023/10/04 09:28:01;;;;;;;4.53;1.90;;;19.60;62.30;;;;;;5072097;28;20044;-64
2023/10/04 09:30:28;;;;;;;5.78;1.85;;;19.50;61.90;;;;;;5074962;28;20025;-66
2023/10/04 09:32:53;;;;;;;6.05;1.80;;;19.50;61.70;;;;;;5075883;28;20068;-65
2023/10/04 09:35:20;;;;;;;3.00;1.70;;;19.50;62.00;;;;;;5075313;28;20071;-66
2023/10/04 09:37:49;;;;;;;4.68;1.90;;;19.50;61.90;;;;;;5075499;28;20252;-66
2023/10/04 09:40:17;;;;;;;8.38;1.90;;;19.70;61.10;;;;;;5075780;28;20021;-65
2023/10/04 09:42:46;;;;;;;4.55;1.95;;;19.80;60.60;;;;;;5075711;28;20024;-65
2023/10/04 09:45:12;;;;;;;5.30;1.73;;;20.10;61.30;;;;;;5075826;28;20025;-66
2023/10/04 09:47:38;;;;;;;2.80;1.60;;;20.20;59.30;;;;;;5077084;28;20477;-65
2023/10/04 09:50:19;;;;;;;5.78;1.67;;;20.40;59.40;;;;;;5075446;28;20063;-66
2023/10/04 09:52:44;;;;;;;4.43;1.83;;;20.50;57.50;;;;;;5075825;28;20091;-64
2023/10/04 09:55:12;;;;;;;3.53;1.98;;;20.70;58.20;;;;;;5075337;28;20025;-65
2023/10/04 09:57:42;;;;;;;2.67;1.55;;;20.90;57.50;;;;;;5072970;28;20116;-66
2023/10/04 10:00:12;;;;;;;2.75;1.50;;;20.90;55.50;;;;;;5074062;28;20453;-66
2023/10/04 10:02:40;;;;;;;8.20;2.00;;;21.00;55.60;;;;;;5073442;28;20025;-65
2023/10/04 10:05:09;;;;;;;2.67;1.50;;;20.80;56.10;;;;;;5073874;28;20025;-65
2023/10/04 10:07:37;;;;;;;3.67;1.77;;;20.70;56.20;;;;;;5073582;28;20029;-65
2023/10/04 10:10:16;;;;;;;3.72;1.63;;;20.60;56.30;;;;;;5073986;28;20036;-66
2023/10/04 10:12:43;;;;;;;2.72;1.90;;;20.50;56.60;;;;;;5073216;28;20028;-66
2023/10/04 10:15:11;;;;;;;5.88;1.83;;;20.60;56.30;;;;;;5073241;28;20386;-66
2023/10/04 10:17:38;;;;;;;6.80;2.10;;;20.40;56.50;;;;;;5085306;28;20473;-65
2023/10/04 10:20:09;;;;;;;5.82;1.63;;;20.40;55.90;;;;;;5093750;28;20024;-65
2023/10/04 10:22:54;;;;;;;;;;;20.50;56.20;;;;;;5093654;28;20482;-65
2023/10/04 10:25:22;;;;;;;2.90;1.75;;;20.60;56.10;;;;;;5093076;28;19903;-69
2023/10/04 10:27:47;;;;;;;2.70;1.77;;;20.60;56.20;;;;;;5093867;28;20035;-65
2023/10/04 10:30:16;;;;;;;3.17;1.67;;;20.70;56.80;;;;;;5093921;28;20065;-65
2023/10/04 10:32:58;;;;;;;4.18;2.05;;;20.80;57.50;;;;;;5093333;28;20411;-65
2023/10/04 10:35:46;;;;;;;4.60;2.45;;;20.90;57.30;;;;;;5093087;28;20112;-64
2023/10/04 10:38:30;;;;;;;4.43;2.08;;;20.90;56.50;;;;;;5093794;28;20074;-66
2023/10/04 10:40:56;;;;;;;3.85;2.20;;;21.00;57.00;;;;;;5093655;28;20070;-66
2023/10/04 10:43:22;;;;;;;4.63;1.98;;;21.20;57.30;;;;;;5089328;28;20033;-69
2023/10/04 10:45:47;;;;;;;3.05;1.90;;;21.40;57.60;;;;;;5073243;28;20033;-65
2023/10/04 10:48:13;;;;;;;4.28;1.80;;;21.30;57.10;;;;;;5073225;28;20024;-66
2023/10/04 10:50:41;;;;;;;5.05;1.98;;;21.10;57.00;;;;;;5072730;28;20028;-66
2023/10/04 10:53:11;;;;;;;3.55;1.98;;;21.30;57.20;;;;;;5073513;28;20028;-65
2023/10/04 10:55:39;;;;;;;4.32;1.83;;;21.50;55.90;;;;;;5072770;28;20388;-65
2023/10/04 10:58:07;;;;;;;6.00;2.10;;;21.60;54.30;;;;;;5034928;28;1104074;-65
2023/10/04 11:00:33;;;;;;;7.93;1.90;;;21.70;55.00;;;;;;5073710;28;20028;-65
2023/10/04 11:03:00;;;;;;;5.38;2.05;;;21.60;53.30;;;;;;5074085;28;20024;-65
2023/10/04 11:05:26;;;;;;;5.38;1.75;;;21.50;53.00;;;;;;5073650;28;20385;-66
2023/10/04 11:07:54;;;;;;;5.40;1.95;;;21.50;52.80;;;;;;5074056;28;20024;-65
2023/10/04 11:10:23;;;;;;;2.97;1.80;;;21.50;53.80;;;;;;5074126;28;20024;-65
2023/10/04 11:12:59;;;;;;;7.13;1.65;;;21.60;53.20;;;;;;5074128;28;20027;-65
2023/10/04 11:15:27;;;;;;;7.55;2.10;;;21.80;52.60;;;;;;5073652;28;20556;-66
2023/10/04 11:17:53;;;;;;;4.40;2.25;;;22.00;53.10;;;;;;5073876;28;20101;-65
2023/10/04 11:20:18;;;;;;;3.03;1.67;;;22.10;53.20;;;;;;5073761;28;20064;-66
2023/10/04 11:22:45;;;;;;;5.13;2.20;;;22.10;53.10;;;;;;5073335;28;20050;-65
2023/10/04 11:25:13;;;;;;;7.68;1.95;;;22.10;52.80;;;;;;5073373;28;20029;-65
2023/10/04 11:27:42;;;;;;;5.97;2.13;;;22.10;52.00;;;;;;5073008;28;20078;-65
2023/10/04 11:30:11;;;;;;;3.45;1.60;;;22.10;51.60;;;;;;5073722;28;20103;-65
2023/10/04 11:32:46;;;;;;;6.60;2.20;;;22.00;51.90;;;;;;5073153;28;20035;-65
2023/10/04 11:35:15;;;;;;;5.72;1.95;;;21.90;51.90;;;;;;5073947;28;20025;-66
2023/10/04 11:37:44;;;;;;;4.93;2.08;;;21.90;51.80;;;;;;5072961;28;20042;-65
2023/10/04 11:40:12;;;;;;;6.70;1.92;;;22.20;51.60;;;;;;5073343;28;20075;-66
2023/10/04 11:42:39;;;;;;;7.22;1.90;;;22.20;52.20;;;;;;5075666;28;20028;-66
2023/10/04 11:45:23;;;;;;;3.95;1.83;;;22.40;52.50;;;;;;5073395;28;20027;-67
2023/10/04 11:48:08;;;;;;;5.35;1.90;;;22.50;51.10;;;;;;5072840;28;20047;-65
2023/10/04 11:50:49;;;;;;;4.18;1.92;;;22.50;51.40;;;;;;5072820;28;20052;-65
2023/10/04 11:53:38;;;;;;;3.90;1.73;;;22.50;50.20;;;;;;5072689;28;20436;-65
2023/10/04 11:56:06;;;;;;;3.45;1.98;;;22.50;50.40;;;;;;5073394;28;20033;-65
2023/10/04 11:58:53;;;;;;;7.28;1.80;;;22.40;50.60;;;;;;5072951;28;20135;-65
2023/10/04 12:01:22;;;;;;;3.25;2.17;;;22.50;50.80;;;;;;5072646;28;20052;-65
2023/10/04 12:03:49;;;;;;;3.05;2.03;;;22.50;51.00;;;;;;5072493;28;20503;-65
2023/10/04 12:06:25;;;;;;;3.88;2.22;;;22.50;50.80;;;;;;5072780;28;20071;-65
2023/10/04 12:08:53;;;;;;;5.13;2.10;;;22.50;51.10;;;;;;5072644;28;20024;-65
2023/10/04 12:11:22;;;;;;;10.32;2.70;;;22.70;50.70;;;;;;5072784;28;20032;-65
2023/10/04 12:13:49;;;;;;;4.72;2.08;;;22.70;51.20;;;;;;5072438;28;20025;-65
2023/10/04 12:16:17;;;;;;;4.60;2.00;;;22.60;50.00;;;;;;5075293;28;20071;-66
2023/10/04 12:18:43;;;;;;;4.13;2.10;;;22.70;49.00;;;;;;5072375;28;20086;-66
2023/10/04 12:21:09;;;;;;;7.38;1.90;;;22.80;48.60;;;;;;5071426;28;20461;-65
2023/10/04 12:23:34;;;;;;;3.63;1.80;;;22.90;48.80;;;;;;5072319;28;20032;-66
2023/10/04 12:26:00;;;;;;;5.95;1.95;;;22.90;48.80;;;;;;5072536;28;20477;-66
2023/10/04 12:28:29;;;;;;;4.13;1.95;;;22.90;48.50;;;;;;5072715;28;20052;-66
2023/10/04 12:31:01;;;;;;;3.20;1.85;;;22.80;49.60;;;;;;5072258;28;20465;-65
2023/10/04 12:33:27;;;;;;;6.70;1.98;;;22.60;49.60;;;;;;5072522;28;20036;-64
2023/10/04 12:35:54;;;;;;;4.22;2.10;;;22.60;50.20;;;;;;5071696;28;20537;-66
2023/10/04 12:38:23;;;;;;;6.28;2.53;;;22.60;50.40;;;;;;5072116;28;20423;-66
2023/10/04 12:40:49;;;;;;;3.05;1.58;;;22.80;51.10;;;;;;5070824;28;20021;-65
2023/10/04 12:43:15;;;;;;;4.15;1.88;;;22.60;47.90;;;;;;5071231;28;20029;-64
2023/10/04 12:45:40;;;;;;;3.17;1.95;;;22.50;47.50;;;;;;5072026;28;20029;-65
2023/10/04 12:48:06;;;;;;;3.00;1.67;;;22.40;47.60;;;;;;5072207;28;20040;-66
2023/10/04 12:50:35;;;;;;;4.88;1.83;;;22.30;47.30;;;;;;5071998;28;20043;-65
2023/10/04 12:53:01;;;;;;;2.97;2.10;;;22.30;47.80;;;;;;5076429;28;20090;-65
2023/10/04 12:55:27;;;;;;;6.28;2.38;;;22.30;48.30;;;;;;5092725;28;20032;-65
2023/10/04 12:57:53;;;;;;;3.33;1.95;;;22.30;48.00;;;;;;5092003;28;20040;-65
2023/10/04 13:00:25;;;;;;;3.33;1.73;;;22.20;47.10;;;;;;5091298;28;20020;-65